sensor_id;sensor_type;location;lat;lon;timestamp;temperature;humidity
19174;DHT22;9719;49.322;8.536;2024-02-15T00:00:57;10.30;99.90
19174;DHT22;9719;49.322;8.536;2024-02-15T00:06:01;10.20;99.90
19174;DHT22;9719;49.322;8.536;2024-02-15T00:11:03;10.20;99.90
19174;DHT22;9719;49.322;8.536;2024-02-15T00:16:05;10.30;99.90
19174;DHT22;9719;49.322;8.536;2024-02-15T00:21:08;10.20;99.90
19174;DHT22;9719;49.322;8.536;2024-02-15T00:26:10;10.20;99.90
19174;DHT22;9719;49.322;8.536;2024-02-15T00:31:12;10.10;99.90
19174;DHT22;9719;49.322;8.536;2024-02-15T00:36:15;10.00;99.90
19174;DHT22;9719;49.322;8.536;2024-02-15T00:41:17;10.00;99.90
19174;DHT22;9719;49.322;8.536;2024-02-15T00:46:20;10.10;99.90
19174;DHT22;9719;49.322;8.536;2024-02-15T00:51:23;10.00;99.90
19174;DHT22;9719;49.322;8.536;2024-02-15T00:56:25;9.80;99.90
19174;DHT22;9719;49.322;8.536;2024-02-15T01:01:26;9.80;99.90
19174;DHT22;9719;49.322;8.536;2024-02-15T01:06:29;9.90;99.90
19174;DHT22;9719;49.322;8.536;2024-02-15T01:11:31;9.80;99.90
19174;DHT22;9719;49.322;8.536;2024-02-15T01:16:33;9.90;99.90
19174;DHT22;9719;49.322;8.536;2024-02-15T01:21:37;9.90;99.90
19174;DHT22;9719;49.322;8.536;2024-02-15T01:26:39;9.90;99.90
19174;DHT22;9719;49.322;8.536;2024-02-15T01:31:42;10.00;99.90
19174;DHT22;9719;49.322;8.536;2024-02-15T01:36:47;10.00;99.90
19174;DHT22;9719;49.322;8.536;2024-02-15T01:41:49;10.00;99.90
19174;DHT22;9719;49.322;8.536;2024-02-15T01:46:52;10.00;99.90
19174;DHT22;9719;49.322;8.536;2024-02-15T01:51:56;10.10;99.90
19174;DHT22;9719;49.322;8.536;2024-02-15T01:56:59;10.10;99.90
19174;DHT22;9719;49.322;8.536;2024-02-15T02:02:02;10.10;99.90
19174;DHT22;9719;49.322;8.536;2024-02-15T02:07:06;10.10;99.90
19174;DHT22;9719;49.322;8.536;2024-02-15T02:12:09;10.00;99.90
19174;DHT22;9719;49.322;8.536;2024-02-15T02:17:12;10.20;99.90
19174;DHT22;9719;49.322;8.536;2024-02-15T02:22:16;10.10;99.90
19174;DHT22;9719;49.322;8.536;2024-02-15T02:27:20;10.30;99.90
19174;DHT22;9719;49.322;8.536;2024-02-15T02:32:22;10.10;99.90
19174;DHT22;9719;49.322;8.536;2024-02-15T02:37:24;10.10;99.90
19174;DHT22;9719;49.322;8.536;2024-02-15T02:42:27;10.10;99.90
19174;DHT22;9719;49.322;8.536;2024-02-15T02:47:28;10.10;99.90
19174;DHT22;9719;49.322;8.536;2024-02-15T02:52:30;10.10;99.90
19174;DHT22;9719;49.322;8.536;2024-02-15T02:57:33;10.00;99.90
19174;DHT22;9719;49.322;8.536;2024-02-15T03:02:35;10.10;99.90
19174;DHT22;9719;49.322;8.536;2024-02-15T03:07:37;10.10;99.90
19174;DHT22;9719;49.322;8.536;2024-02-15T03:12:42;10.10;99.90
19174;DHT22;9719;49.322;8.536;2024-02-15T03:17:47;10.30;99.90
19174;DHT22;9719;49.322;8.536;2024-02-15T03:22:54;10.20;99.90
19174;DHT22;9719;49.322;8.536;2024-02-15T03:27:58;10.20;99.90
19174;DHT22;9719;49.322;8.536;2024-02-15T03:33:03;10.20;99.90
19174;DHT22;9719;49.322;8.536;2024-02-15T03:38:06;10.20;99.90
19174;DHT22;9719;49.322;8.536;2024-02-15T03:43:09;10.10;99.90
19174;DHT22;9719;49.322;8.536;2024-02-15T03:48:11;10.30;99.90
19174;DHT22;9719;49.322;8.536;2024-02-15T03:53:12;10.10;99.90
19174;DHT22;9719;49.322;8.536;2024-02-15T03:58:15;10.20;99.90
19174;DHT22;9719;49.322;8.536;2024-02-15T04:03:17;10.20;99.90
19174;DHT22;9719;49.322;8.536;2024-02-15T04:08:19;10.20;99.90
19174;DHT22;9719;49.322;8.536;2024-02-15T04:13:22;10.30;99.90
19174;DHT22;9719;49.322;8.536;2024-02-15T04:18:23;10.30;99.90
19174;DHT22;9719;49.322;8.536;2024-02-15T04:23:25;10.30;99.90
19174;DHT22;9719;49.322;8.536;2024-02-15T04:28:28;10.40;99.90
19174;DHT22;9719;49.322;8.536;2024-02-15T04:33:30;10.40;99.90
19174;DHT22;9719;49.322;8.536;2024-02-15T04:38:31;10.30;99.90
19174;DHT22;9719;49.322;8.536;2024-02-15T04:43:36;10.30;99.90
19174;DHT22;9719;49.322;8.536;2024-02-15T04:48:39;10.20;99.90
19174;DHT22;9719;49.322;8.536;2024-02-15T04:53:42;10.10;99.90
19174;DHT22;9719;49.322;8.536;2024-02-15T04:58:45;10.30;99.90
19174;DHT22;9719;49.322;8.536;2024-02-15T05:03:47;10.20;99.90
19174;DHT22;9719;49.322;8.536;2024-02-15T05:08:49;10.30;99.90
19174;DHT22;9719;49.322;8.536;2024-02-15T05:13:52;10.20;99.90
19174;DHT22;9719;49.322;8.536;2024-02-15T05:18:54;10.40;99.90
19174;DHT22;9719;49.322;8.536;2024-02-15T05:23:56;10.40;99.90
19174;DHT22;9719;49.322;8.536;2024-02-15T05:28:59;10.30;99.90
19174;DHT22;9719;49.322;8.536;2024-02-15T05:34:01;10.30;99.90
19174;DHT22;9719;49.322;8.536;2024-02-15T05:39:02;10.40;99.90
19174;DHT22;9719;49.322;8.536;2024-02-15T05:44:06;10.60;99.90
19174;DHT22;9719;49.322;8.536;2024-02-15T05:49:08;10.30;99.90
19174;DHT22;9719;49.322;8.536;2024-02-15T05:54:15;10.40;99.90
19174;DHT22;9719;49.322;8.536;2024-02-15T05:59:19;10.40;99.90
19174;DHT22;9719;49.322;8.536;2024-02-15T06:04:21;10.50;99.90
19174;DHT22;9719;49.322;8.536;2024-02-15T06:09:24;10.50;99.90
19174;DHT22;9719;49.322;8.536;2024-02-15T06:14:29;10.50;99.90
19174;DHT22;9719;49.322;8.536;2024-02-15T06:19:31;10.50;99.90
19174;DHT22;9719;49.322;8.536;2024-02-15T06:24:33;10.50;99.90
19174;DHT22;9719;49.322;8.536;2024-02-15T06:29:36;10.50;99.90
19174;DHT22;9719;49.322;8.536;2024-02-15T06:34:55;10.30;99.90
19174;DHT22;9719;49.322;8.536;2024-02-15T06:40:14;10.50;99.90
19174;DHT22;9719;49.322;8.536;2024-02-15T06:45:18;10.50;99.90
19174;DHT22;9719;49.322;8.536;2024-02-15T06:50:20;10.50;99.90
19174;DHT22;9719;49.322;8.536;2024-02-15T06:55:22;10.50;99.90
19174;DHT22;9719;49.322;8.536;2024-02-15T07:00:25;10.50;99.90
19174;DHT22;9719;49.322;8.536;2024-02-15T07:05:27;10.50;99.90
19174;DHT22;9719;49.322;8.536;2024-02-15T07:10:29;10.50;99.90
19174;DHT22;9719;49.322;8.536;2024-02-15T07:15:33;10.60;99.90
19174;DHT22;9719;49.322;8.536;2024-02-15T07:20:38;10.60;99.90
19174;DHT22;9719;49.322;8.536;2024-02-15T07:25:40;10.80;99.90
19174;DHT22;9719;49.322;8.536;2024-02-15T07:30:43;10.80;99.90
19174;DHT22;9719;49.322;8.536;2024-02-15T07:35:44;10.80;99.90
19174;DHT22;9719;49.322;8.536;2024-02-15T07:40:46;10.80;99.90
19174;DHT22;9719;49.322;8.536;2024-02-15T07:45:49;10.80;99.90
19174;DHT22;9719;49.322;8.536;2024-02-15T07:50:51;10.90;99.90
19174;DHT22;9719;49.322;8.536;2024-02-15T07:55:52;10.80;99.90
19174;DHT22;9719;49.322;8.536;2024-02-15T08:00:55;10.90;99.90
19174;DHT22;9719;49.322;8.536;2024-02-15T08:05:58;10.90;99.90
19174;DHT22;9719;49.322;8.536;2024-02-15T08:11:00;11.00;99.90
19174;DHT22;9719;49.322;8.536;2024-02-15T08:16:04;11.00;99.90
19174;DHT22;9719;49.322;8.536;2024-02-15T08:21:06;11.10;99.90
19174;DHT22;9719;49.322;8.536;2024-02-15T08:26:08;11.10;99.90
19174;DHT22;9719;49.322;8.536;2024-02-15T08:31:12;11.10;99.90
19174;DHT22;9719;49.322;8.536;2024-02-15T08:36:15;11.10;99.90
19174;DHT22;9719;49.322;8.536;2024-02-15T08:41:17;11.20;99.90
19174;DHT22;9719;49.322;8.536;2024-02-15T08:46:20;11.30;99.90
19174;DHT22;9719;49.322;8.536;2024-02-15T08:51:22;11.30;99.90
19174;DHT22;9719;49.322;8.536;2024-02-15T08:56:24;11.60;99.90
19174;DHT22;9719;49.322;8.536;2024-02-15T09:01:27;11.80;99.90
19174;DHT22;9719;49.322;8.536;2024-02-15T09:06:28;12.00;99.90
19174;DHT22;9719;49.322;8.536;2024-02-15T09:11:31;12.40;99.90
19174;DHT22;9719;49.322;8.536;2024-02-15T09:16:36;12.70;99.90
19174;DHT22;9719;49.322;8.536;2024-02-15T09:21:39;13.10;99.90
19174;DHT22;9719;49.322;8.536;2024-02-15T09:26:41;13.30;99.90
19174;DHT22;9719;49.322;8.536;2024-02-15T09:31:44;13.30;99.90
19174;DHT22;9719;49.322;8.536;2024-02-15T09:36:47;13.40;99.90
19174;DHT22;9719;49.322;8.536;2024-02-15T09:41:49;13.60;99.90
19174;DHT22;9719;49.322;8.536;2024-02-15T09:47:02;13.80;99.90
19174;DHT22;9719;49.322;8.536;2024-02-15T09:52:06;13.80;99.90
19174;DHT22;9719;49.322;8.536;2024-02-15T09:57:12;13.80;99.90
19174;DHT22;9719;49.322;8.536;2024-02-15T10:02:15;13.90;99.90
19174;DHT22;9719;49.322;8.536;2024-02-15T10:07:19;14.10;99.90
19174;DHT22;9719;49.322;8.536;2024-02-15T10:12:20;14.50;99.90
19174;DHT22;9719;49.322;8.536;2024-02-15T10:17:24;14.70;99.90
19174;DHT22;9719;49.322;8.536;2024-02-15T10:22:26;14.60;99.90
19174;DHT22;9719;49.322;8.536;2024-02-15T10:27:28;14.80;99.90
19174;DHT22;9719;49.322;8.536;2024-02-15T10:32:35;14.90;99.90
19174;DHT22;9719;49.322;8.536;2024-02-15T10:37:37;14.90;99.90
19174;DHT22;9719;49.322;8.536;2024-02-15T10:42:40;14.90;99.90
19174;DHT22;9719;49.322;8.536;2024-02-15T10:47:44;14.80;99.90
19174;DHT22;9719;49.322;8.536;2024-02-15T10:52:53;15.00;99.90
19174;DHT22;9719;49.322;8.536;2024-02-15T10:58:00;15.30;99.90
19174;DHT22;9719;49.322;8.536;2024-02-15T11:03:07;15.30;99.90
19174;DHT22;9719;49.322;8.536;2024-02-15T11:08:12;15.40;99.90
19174;DHT22;9719;49.322;8.536;2024-02-15T11:13:14;15.50;99.90
19174;DHT22;9719;49.322;8.536;2024-02-15T11:18:43;15.50;99.90
19174;DHT22;9719;49.322;8.536;2024-02-15T11:23:45;15.40;99.90
19174;DHT22;9719;49.322;8.536;2024-02-15T11:28:47;15.50;99.90
19174;DHT22;9719;49.322;8.536;2024-02-15T11:33:52;15.60;99.90
19174;DHT22;9719;49.322;8.536;2024-02-15T11:38:54;15.70;99.90
19174;DHT22;9719;49.322;8.536;2024-02-15T11:43:56;15.80;99.90
19174;DHT22;9719;49.322;8.536;2024-02-15T11:49:00;15.90;99.90
19174;DHT22;9719;49.322;8.536;2024-02-15T11:54:06;16.10;99.90
19174;DHT22;9719;49.322;8.536;2024-02-15T11:59:07;16.00;99.90
19174;DHT22;9719;49.322;8.536;2024-02-15T12:04:14;16.10;99.90
19174;DHT22;9719;49.322;8.536;2024-02-15T12:09:38;16.00;99.90
19174;DHT22;9719;49.322;8.536;2024-02-15T12:14:58;16.20;99.90
19174;DHT22;9719;49.322;8.536;2024-02-15T12:20:19;16.30;99.90
19174;DHT22;9719;49.322;8.536;2024-02-15T12:25:25;16.40;99.90
19174;DHT22;9719;49.322;8.536;2024-02-15T12:30:33;16.40;99.90
19174;DHT22;9719;49.322;8.536;2024-02-15T12:35:38;16.60;99.90
19174;DHT22;9719;49.322;8.536;2024-02-15T12:40:39;16.60;99.90
19174;DHT22;9719;49.322;8.536;2024-02-15T12:45:42;16.70;99.90
19174;DHT22;9719;49.322;8.536;2024-02-15T12:50:45;16.70;99.10
19174;DHT22;9719;49.322;8.536;2024-02-15T12:55:52;16.60;99.90
19174;DHT22;9719;49.322;8.536;2024-02-15T13:00:55;16.70;99.90
19174;DHT22;9719;49.322;8.536;2024-02-15T13:06:00;16.80;99.40
19174;DHT22;9719;49.322;8.536;2024-02-15T13:11:02;16.90;99.30
19174;DHT22;9719;49.322;8.536;2024-02-15T13:16:04;16.70;98.40
19174;DHT22;9719;49.322;8.536;2024-02-15T13:21:08;16.70;98.40
19174;DHT22;9719;49.322;8.536;2024-02-15T13:26:10;16.80;98.30
19174;DHT22;9719;49.322;8.536;2024-02-15T13:31:12;16.80;97.50
19174;DHT22;9719;49.322;8.536;2024-02-15T13:36:15;16.80;97.30
19174;DHT22;9719;49.322;8.536;2024-02-15T13:41:17;16.80;97.30
19174;DHT22;9719;49.322;8.536;2024-02-15T13:46:20;16.80;96.90
19174;DHT22;9719;49.322;8.536;2024-02-15T13:51:23;16.80;97.90
19174;DHT22;9719;49.322;8.536;2024-02-15T13:56:25;16.90;97.60
19174;DHT22;9719;49.322;8.536;2024-02-15T14:01:26;17.00;97.00
19174;DHT22;9719;49.322;8.536;2024-02-15T14:06:30;16.90;96.90
19174;DHT22;9719;49.322;8.536;2024-02-15T14:11:31;16.90;96.00
19174;DHT22;9719;49.322;8.536;2024-02-15T14:16:33;16.90;96.50
19174;DHT22;9719;49.322;8.536;2024-02-15T14:21:36;17.00;97.30
19174;DHT22;9719;49.322;8.536;2024-02-15T14:26:40;16.80;96.70
19174;DHT22;9719;49.322;8.536;2024-02-15T14:31:42;16.80;96.50
19174;DHT22;9719;49.322;8.536;2024-02-15T14:37:01;16.80;97.30
19174;DHT22;9719;49.322;8.536;2024-02-15T14:42:06;16.70;96.60
19174;DHT22;9719;49.322;8.536;2024-02-15T14:47:08;16.60;97.10
19174;DHT22;9719;49.322;8.536;2024-02-15T14:52:11;16.50;98.10
19174;DHT22;9719;49.322;8.536;2024-02-15T14:57:12;16.60;99.70
19174;DHT22;9719;49.322;8.536;2024-02-15T15:02:15;16.40;99.90
19174;DHT22;9719;49.322;8.536;2024-02-15T15:07:18;16.40;99.90
19174;DHT22;9719;49.322;8.536;2024-02-15T15:12:37;16.40;99.90
19174;DHT22;9719;49.322;8.536;2024-02-15T15:17:40;16.40;99.90
19174;DHT22;9719;49.322;8.536;2024-02-15T15:22:44;16.30;99.90
19174;DHT22;9719;49.322;8.536;2024-02-15T15:27:46;16.30;99.90
19174;DHT22;9719;49.322;8.536;2024-02-15T15:32:47;16.20;99.90
19174;DHT22;9719;49.322;8.536;2024-02-15T15:37:51;16.10;99.90
19174;DHT22;9719;49.322;8.536;2024-02-15T15:42:53;16.00;99.90
19174;DHT22;9719;49.322;8.536;2024-02-15T15:47:55;15.80;99.90
19174;DHT22;9719;49.322;8.536;2024-02-15T15:52:58;15.80;99.90
19174;DHT22;9719;49.322;8.536;2024-02-15T15:57:59;15.60;99.90
19174;DHT22;9719;49.322;8.536;2024-02-15T16:03:01;15.40;99.90
19174;DHT22;9719;49.322;8.536;2024-02-15T16:08:06;15.40;99.90
19174;DHT22;9719;49.322;8.536;2024-02-15T16:13:08;15.40;99.90
19174;DHT22;9719;49.322;8.536;2024-02-15T16:18:09;15.40;99.90
19174;DHT22;9719;49.322;8.536;2024-02-15T16:23:12;15.10;99.90
19174;DHT22;9719;49.322;8.536;2024-02-15T16:28:14;15.00;99.90
19174;DHT22;9719;49.322;8.536;2024-02-15T16:33:16;14.90;99.90
19174;DHT22;9719;49.322;8.536;2024-02-15T16:38:19;14.70;99.90
19174;DHT22;9719;49.322;8.536;2024-02-15T16:43:21;14.70;99.90
19174;DHT22;9719;49.322;8.536;2024-02-15T16:48:22;14.50;99.90
19174;DHT22;9719;49.322;8.536;2024-02-15T16:53:25;14.40;99.90
19174;DHT22;9719;49.322;8.536;2024-02-15T16:58:27;14.10;99.90
19174;DHT22;9719;49.322;8.536;2024-02-15T17:03:29;14.00;99.90
19174;DHT22;9719;49.322;8.536;2024-02-15T17:08:32;14.10;99.90
19174;DHT22;9719;49.322;8.536;2024-02-15T17:13:33;13.90;99.90
19174;DHT22;9719;49.322;8.536;2024-02-15T17:18:36;13.90;99.90
19174;DHT22;9719;49.322;8.536;2024-02-15T17:23:40;13.90;99.90
19174;DHT22;9719;49.322;8.536;2024-02-15T17:28:43;13.90;99.90
19174;DHT22;9719;49.322;8.536;2024-02-15T17:33:45;13.80;99.90
19174;DHT22;9719;49.322;8.536;2024-02-15T17:38:48;13.80;99.90
19174;DHT22;9719;49.322;8.536;2024-02-15T17:43:51;13.90;99.90
19174;DHT22;9719;49.322;8.536;2024-02-15T17:48:58;14.10;99.90
19174;DHT22;9719;49.322;8.536;2024-02-15T17:54:01;14.00;99.90
19174;DHT22;9719;49.322;8.536;2024-02-15T17:59:03;13.90;99.90
19174;DHT22;9719;49.322;8.536;2024-02-15T18:04:04;14.00;99.90
19174;DHT22;9719;49.322;8.536;2024-02-15T18:09:08;13.90;99.90
19174;DHT22;9719;49.322;8.536;2024-02-15T18:14:09;14.00;99.90
19174;DHT22;9719;49.322;8.536;2024-02-15T18:19:11;14.00;99.90
19174;DHT22;9719;49.322;8.536;2024-02-15T18:24:14;13.80;99.90
19174;DHT22;9719;49.322;8.536;2024-02-15T18:29:16;13.80;99.90
19174;DHT22;9719;49.322;8.536;2024-02-15T18:34:19;13.70;99.90
19174;DHT22;9719;49.322;8.536;2024-02-15T18:39:22;13.60;99.90
19174;DHT22;9719;49.322;8.536;2024-02-15T18:44:25;13.50;99.90
19174;DHT22;9719;49.322;8.536;2024-02-15T18:49:27;13.40;99.90
19174;DHT22;9719;49.322;8.536;2024-02-15T18:54:30;13.50;99.90
19174;DHT22;9719;49.322;8.536;2024-02-15T18:59:31;13.50;99.90
19174;DHT22;9719;49.322;8.536;2024-02-15T19:04:35;13.70;99.90
19174;DHT22;9719;49.322;8.536;2024-02-15T19:09:40;13.60;99.90
19174;DHT22;9719;49.322;8.536;2024-02-15T19:14:42;13.40;99.90
19174;DHT22;9719;49.322;8.536;2024-02-15T19:19:43;13.60;99.90
19174;DHT22;9719;49.322;8.536;2024-02-15T19:24:46;13.40;99.90
19174;DHT22;9719;49.322;8.536;2024-02-15T19:29:50;13.40;99.90
19174;DHT22;9719;49.322;8.536;2024-02-15T19:34:52;13.30;99.90
19174;DHT22;9719;49.322;8.536;2024-02-15T19:39:55;13.50;99.90
19174;DHT22;9719;49.322;8.536;2024-02-15T19:44:57;13.50;99.90
19174;DHT22;9719;49.322;8.536;2024-02-15T19:49:59;13.50;99.90
19174;DHT22;9719;49.322;8.536;2024-02-15T19:55:03;13.50;99.90
19174;DHT22;9719;49.322;8.536;2024-02-15T20:00:06;13.70;99.90
19174;DHT22;9719;49.322;8.536;2024-02-15T20:05:08;13.70;99.90
19174;DHT22;9719;49.322;8.536;2024-02-15T20:10:11;13.60;99.90
19174;DHT22;9719;49.322;8.536;2024-02-15T20:15:13;13.70;99.90
19174;DHT22;9719;49.322;8.536;2024-02-15T20:20:14;13.60;99.90
19174;DHT22;9719;49.322;8.536;2024-02-15T20:25:19;13.60;99.90
19174;DHT22;9719;49.322;8.536;2024-02-15T20:30:21;13.60;99.90
19174;DHT22;9719;49.322;8.536;2024-02-15T20:35:23;13.60;99.90
19174;DHT22;9719;49.322;8.536;2024-02-15T20:40:28;13.60;99.90
19174;DHT22;9719;49.322;8.536;2024-02-15T20:45:30;13.50;99.90
19174;DHT22;9719;49.322;8.536;2024-02-15T20:50:32;13.40;99.90
19174;DHT22;9719;49.322;8.536;2024-02-15T20:55:35;13.30;99.90
19174;DHT22;9719;49.322;8.536;2024-02-15T21:00:38;13.10;99.90
19174;DHT22;9719;49.322;8.536;2024-02-15T21:05:41;12.90;99.90
19174;DHT22;9719;49.322;8.536;2024-02-15T21:10:44;12.90;99.90
19174;DHT22;9719;49.322;8.536;2024-02-15T21:15:46;12.90;99.90
19174;DHT22;9719;49.322;8.536;2024-02-15T21:20:48;12.90;99.90
19174;DHT22;9719;49.322;8.536;2024-02-15T21:25:51;12.90;99.90
19174;DHT22;9719;49.322;8.536;2024-02-15T21:30:52;12.90;99.90
19174;DHT22;9719;49.322;8.536;2024-02-15T21:35:55;12.90;99.90
19174;DHT22;9719;49.322;8.536;2024-02-15T21:40:58;12.90;99.90
19174;DHT22;9719;49.322;8.536;2024-02-15T21:46:00;12.90;99.90
19174;DHT22;9719;49.322;8.536;2024-02-15T21:51:03;12.90;99.90
19174;DHT22;9719;49.322;8.536;2024-02-15T21:56:06;12.80;99.90
19174;DHT22;9719;49.322;8.536;2024-02-15T22:01:07;12.90;99.90
19174;DHT22;9719;49.322;8.536;2024-02-15T22:06:10;12.80;99.90
19174;DHT22;9719;49.322;8.536;2024-02-15T22:11:13;12.80;99.90
19174;DHT22;9719;49.322;8.536;2024-02-15T22:16:15;12.70;99.90
19174;DHT22;9719;49.322;8.536;2024-02-15T22:21:17;12.70;99.90
19174;DHT22;9719;49.322;8.536;2024-02-15T22:26:20;12.70;99.90
19174;DHT22;9719;49.322;8.536;2024-02-15T22:31:22;12.60;99.90
19174;DHT22;9719;49.322;8.536;2024-02-15T22:36:26;12.60;99.90
19174;DHT22;9719;49.322;8.536;2024-02-15T22:41:29;12.70;99.90
19174;DHT22;9719;49.322;8.536;2024-02-15T22:46:32;12.50;99.90
19174;DHT22;9719;49.322;8.536;2024-02-15T22:51:33;12.50;99.90
19174;DHT22;9719;49.322;8.536;2024-02-15T22:56:41;12.40;99.90
19174;DHT22;9719;49.322;8.536;2024-02-15T23:01:43;12.30;99.90
19174;DHT22;9719;49.322;8.536;2024-02-15T23:06:45;12.40;99.90
19174;DHT22;9719;49.322;8.536;2024-02-15T23:11:48;12.30;99.90
19174;DHT22;9719;49.322;8.536;2024-02-15T23:16:50;12.50;99.90
19174;DHT22;9719;49.322;8.536;2024-02-15T23:21:52;12.30;99.90
19174;DHT22;9719;49.322;8.536;2024-02-15T23:26:55;12.50;99.90
19174;DHT22;9719;49.322;8.536;2024-02-15T23:31:56;12.40;99.90
19174;DHT22;9719;49.322;8.536;2024-02-15T23:36:58;12.30;99.90
19174;DHT22;9719;49.322;8.536;2024-02-15T23:42:19;12.30;99.90
19174;DHT22;9719;49.322;8.536;2024-02-15T23:47:20;12.30;99.90
19174;DHT22;9719;49.322;8.536;2024-02-15T23:52:23;12.30;99.90
19174;DHT22;9719;49.322;8.536;2024-02-15T23:57:26;12.30;99.90
